Wetterdaten: Montag, 04.06.2012
Datum Zeit Temperatur Luftfeuchte Regen Wind Richtung Richtung Taupunkt Windchill Windben
04.06.2012 00:00 11,1 C 93 % 0,0 l/m 1,0 km/h (0 Bft) O-NO 67 10,0 C 11,0 C 2,1 km/h (1 Bft)
04.06.2012 00:05 11,2 C 93 % 0,0 l/m 1,3 km/h (1 Bft) S-SO 157 10,1 C 11,1 C 2,6 km/h (1 Bft)
04.06.2012 00:10 11,3 C 93 % 0,0 l/m 3,1 km/h (1 Bft) O-SO 112 10,2 C 11,2 C 5,1 km/h (1 Bft)
04.06.2012 00:15 11,3 C 93 % 0,0 l/m 4,5 km/h (1 Bft) SO 135 10,2 C 11,2 C 6,8 km/h (2 Bft)
04.06.2012 00:20 11,3 C 93 % 0,0 l/m 7,9 km/h (2 Bft) S-SW 202 10,2 C 9,3 C 18,7 km/h (3 Bft)
04.06.2012 00:25 11,3 C 93 % 0,0 l/m 9,2 km/h (2 Bft) NO 45 10,2 C 8,3 C 2,1 km/h (1 Bft)
04.06.2012 00:30 11,2 C 93 % 0,0 l/m 8,7 km/h (2 Bft) S-SO 157 10,1 C 8,7 C 23,5 km/h (4 Bft)
04.06.2012 00:35 11,2 C 93 % 0,0 l/m 6,9 km/h (2 Bft) O-SO 112 10,1 C 10,2 C 4,7 km/h (1 Bft)
04.06.2012 00:40 11,1 C 93 % 0,0 l/m 8,0 km/h (2 Bft) SO 135 10,0 C 9,1 C 29,5 km/h (5 Bft)
04.06.2012 00:45 11,0 C 93 % 0,0 l/m 8,7 km/h (2 Bft) O 90 9,9 C 8,5 C 7,4 km/h (2 Bft)
04.06.2012 00:50 10,8 C 93 % 0,0 l/m 6,6 km/h (2 Bft) O 90 9,7 C 10,2 C 5,0 km/h (1 Bft)
04.06.2012 00:55 10,8 C 93 % 0,0 l/m 4,8 km/h (1 Bft) SO 135 9,7 C 10,7 C 11,6 km/h (2 Bft)
04.06.2012 01:00 10,7 C 93 % 0,0 l/m 5,0 km/h (1 Bft) O-SO 112 9,6 C 10,6 C 6,4 km/h (2 Bft)
04.06.2012 01:05 10,6 C 93 % 0,0 l/m 5,1 km/h (1 Bft) O-SO 112 9,5 C 10,3 C 9,8 km/h (2 Bft)
04.06.2012 01:10 10,6 C 93 % 0,0 l/m 4,3 km/h (1 Bft) N-NW 337 9,5 C 10,5 C 5,1 km/h (1 Bft)
04.06.2012 01:15 10,5 C 93 % 0,0 l/m 4,5 km/h (1 Bft) O-SO 112 9,4 C 10,3 C 4,8 km/h (1 Bft)
04.06.2012 01:20 10,4 C 93 % 0,0 l/m 4,7 km/h (1 Bft) O-SO 112 9,3 C 10,3 C 2,9 km/h (1 Bft)
04.06.2012 01:25 10,4 C 93 % 0,0 l/m 4,7 km/h (1 Bft) O-SO 112 9,3 C 10,2 C 8,2 km/h (2 Bft)
04.06.2012 01:30 10,3 C 93 % 0,0 l/m 4,2 km/h (1 Bft) O 90 9,2 C 10,2 C 2,7 km/h (1 Bft)
04.06.2012 01:35 10,3 C 93 % 0,0 l/m 3,2 km/h (1 Bft) O-SO 112 9,2 C 10,1 C 7,1 km/h (2 Bft)
04.06.2012 01:40 10,2 C 93 % 0,7 l/m 2,6 km/h (1 Bft) N-NO 22 9,1 C 10,1 C 2,3 km/h (1 Bft)
04.06.2012 01:45 10,2 C 93 % 0,0 l/m 3,4 km/h (1 Bft) S-SO 157 9,1 C 10,0 C 12,2 km/h (2 Bft)
04.06.2012 01:50 10,1 C 93 % 0,7 l/m 2,7 km/h (1 Bft) N-NO 22 9,0 C 9,9 C 2,9 km/h (1 Bft)
04.06.2012 01:55 10,0 C 93 % 0,0 l/m 2,9 km/h (1 Bft) N-NO 22 8,9 C 9,9 C 0,0 km/h (0 Bft)
04.06.2012 02:00 10,0 C 93 % 0,0 l/m 3,4 km/h (1 Bft) S-SO 157 8,9 C 9,8 C 3,4 km/h (1 Bft)
04.06.2012 02:05 9,9 C 93 % 0,0 l/m 3,2 km/h (1 Bft) N-NO 22 8,8 C 9,8 C 2,9 km/h (1 Bft)
04.06.2012 02:10 9,9 C 93 % 0,7 l/m 2,6 km/h (1 Bft) O 90 8,8 C 9,7 C 6,0 km/h (2 Bft)
04.06.2012 02:15 9,9 C 93 % 0,0 l/m 2,1 km/h (1 Bft) O-SO 112 8,8 C 9,7 C 2,3 km/h (1 Bft)
04.06.2012 02:20 9,8 C 93 % 0,7 l/m 2,4 km/h (1 Bft) S-SO 157 8,7 C 9,7 C 4,3 km/h (1 Bft)
04.06.2012 02:25 9,8 C 93 % 0,0 l/m 2,3 km/h (1 Bft) O-SO 112 8,7 C 9,6 C 4,3 km/h (1 Bft)
04.06.2012 02:30 9,8 C 93 % 0,0 l/m 3,2 km/h (1 Bft) O 90 8,7 C 9,6 C 2,7 km/h (1 Bft)
04.06.2012 02:35 9,8 C 93 % 0,0 l/m 3,1 km/h (1 Bft) O-NO 67 8,7 C 9,6 C 3,5 km/h (1 Bft)
04.06.2012 02:40 9,7 C 93 % 0,7 l/m 2,6 km/h (1 Bft) N-NO 22 8,6 C 9,6 C 2,3 km/h (1 Bft)
04.06.2012 02:45 9,7 C 94 % 0,0 l/m 1,9 km/h (1 Bft) O-SO 112 8,8 C 9,6 C 0,0 km/h (0 Bft)
04.06.2012 02:50 9,6 C 94 % 0,0 l/m 0,5 km/h (0 Bft) N-NO 22 8,7 C 9,5 C 0,0 km/h (0 Bft)
04.06.2012 02:55 9,6 C 94 % 0,0 l/m 0,2 km/h (0 Bft) N-NO 22 8,7 C 9,5 C 0,0 km/h (0 Bft)
04.06.2012 03:00 9,6 C 94 % 0,7 l/m 0,2 km/h (0 Bft) O-SO 112 8,7 C 9,5 C 0,0 km/h (0 Bft)
04.06.2012 03:05 9,6 C 94 % 0,0 l/m 0,2 km/h (0 Bft) O-SO 112 8,7 C 9,5 C 0,0 km/h (0 Bft)
04.06.2012 03:10 9,6 C 94 % 0,0 l/m 0,2 km/h (0 Bft) SO 135 8,7 C 9,5 C 0,0 km/h (0 Bft)
04.06.2012 03:15 9,6 C 94 % 0,7 l/m 0,0 km/h (0 Bft) N-NO 22 8,7 C 9,5 C 0,0 km/h (0 Bft)
04.06.2012 03:20 9,6 C 94 % 0,0 l/m 0,0 km/h (0 Bft) N 360 8,7 C 9,5 C 0,0 km/h (0 Bft)
04.06.2012 03:25 9,6 C 94 % 0,0 l/m 0,3 km/h (0 Bft) O-SO 112 8,7 C 9,5 C 2,9 km/h (1 Bft)
04.06.2012 03:30 9,5 C 94 % 0,0 l/m 0,5 km/h (0 Bft) O 90 8,6 C 9,5 C 3,2 km/h (1 Bft)
04.06.2012 03:35 9,5 C 94 % 0,0 l/m 0,3 km/h (0 Bft) O-SO 112 8,6 C 9,4 C 0,0 km/h (0 Bft)
04.06.2012 03:40 9,5 C 94 % 0,7 l/m 0,3 km/h (0 Bft) N-NO 22 8,6 C 9,3 C 0,0 km/h (0 Bft)
04.06.2012 03:45 9,4 C 94 % 0,0 l/m 0,3 km/h (0 Bft) W 270 8,5 C 9,3 C 0,0 km/h (0 Bft)
04.06.2012 03:50 9,4 C 94 % 0,0 l/m 0,0 km/h (0 Bft) O-SO 112 8,5 C 9,3 C 0,0 km/h (0 Bft)
04.06.2012 03:55 9,4 C 94 % 0,0 l/m 0,0 km/h (0 Bft) N-NO 22 8,5 C 9,3 C 0,0 km/h (0 Bft)
04.06.2012 04:00 9,4 C 94 % 0,7 l/m 0,0 km/h (0 Bft) N 360 8,5 C 9,3 C 0,0 km/h (0 Bft)
04.06.2012 04:05 9,4 C 94 % 0,0 l/m 0,0 km/h (0 Bft) N-NO 22 8,5 C 9,3 C 0,0 km/h (0 Bft)
04.06.2012 04:10 9,4 C 94 % 0,0 l/m 0,2 km/h (0 Bft) S 180 8,5 C 9,3 C 0,0 km/h (0 Bft)
04.06.2012 04:15 9,4 C 94 % 0,0 l/m 0,2 km/h (0 Bft) O 90 8,5 C 9,3 C 0,0 km/h (0 Bft)
04.06.2012 04:20 9,4 C 94 % 0,7 l/m 0,0 km/h (0 Bft) O-SO 112 8,5 C 9,3 C 0,0 km/h (0 Bft)
04.06.2012 04:25 9,4 C 94 % 0,0 l/m 0,0 km/h (0 Bft) N-NW 337 8,5 C 9,3 C 0,0 km/h (0 Bft)
04.06.2012 04:30 9,3 C 94 % 0,0 l/m 0,0 km/h (0 Bft) N 360 8,4 C 9,3 C 0,0 km/h (0 Bft)
04.06.2012 04:35 9,4 C 94 % 0,0 l/m 0,0 km/h (0 Bft) N-NW 337 8,5 C 9,2 C 0,0 km/h (0 Bft)
04.06.2012 04:40 9,4 C 94 % 0,0 l/m 0,0 km/h (0 Bft) N-NW 337 8,5 C 9,3 C 0,0 km/h (0 Bft)
04.06.2012 04:45 9,4 C 94 % 0,0 l/m 0,0 km/h (0 Bft) N 360 8,5 C 9,3 C 0,0 km/h (0 Bft)
04.06.2012 04:50 9,4 C 94 % 0,7 l/m 0,0 km/h (0 Bft) N 360 8,5 C 9,3 C 0,0 km/h (0 Bft)
04.06.2012 04:55 9,3 C 94 % 0,0 l/m 0,0 km/h (0 Bft) N 360 8,4 C 9,3 C 0,0 km/h (0 Bft)
04.06.2012 05:00 9,3 C 94 % 0,0 l/m 0,0 km/h (0 Bft) S-SO 157 8,4 C 9,2 C 1,6 km/h (1 Bft)
04.06.2012 05:05 9,3 C 94 % 0,7 l/m 0,5 km/h (0 Bft) S-SO 157 8,4 C 9,3 C 1,8 km/h (1 Bft)
04.06.2012 05:10 9,3 C 94 % 0,0 l/m 0,6 km/h (0 Bft) N-NO 22 8,4 C 9,2 C 0,0 km/h (0 Bft)
04.06.2012 05:15 9,3 C 94 % 0,0 l/m 0,2 km/h (0 Bft) N-NO 22 8,4 C 9,2 C 0,0 km/h (0 Bft)
04.06.2012 05:20 9,2 C 94 % 0,0 l/m 0,0 km/h (0 Bft) SO 135 8,3 C 9,2 C 0,0 km/h (0 Bft)
04.06.2012 05:25 9,2 C 94 % 0,0 l/m 0,0 km/h (0 Bft) N-NO 22 8,3 C 9,2 C 0,0 km/h (0 Bft)
04.06.2012 05:30 9,2 C 94 % 0,7 l/m 0,0 km/h (0 Bft) N 360 8,3 C 9,2 C 0,0 km/h (0 Bft)
04.06.2012 05:35 9,2 C 94 % 0,0 l/m 0,0 km/h (0 Bft) SO 135 8,3 C 9,1 C 0,0 km/h (0 Bft)
04.06.2012 05:40 9,1 C 94 % 0,0 l/m 0,0 km/h (0 Bft) N-NO 22 8,2 C 9,1 C 0,0 km/h (0 Bft)
04.06.2012 05:45 9,1 C 94 % 0,7 l/m 0,0 km/h (0 Bft) N-NO 22 8,2 C 9,1 C 0,0 km/h (0 Bft)
04.06.2012 05:50 9,2 C 94 % 0,0 l/m 0,0 km/h (0 Bft) N 360 8,3 C 9,1 C 0,0 km/h (0 Bft)
04.06.2012 05:55 9,2 C 94 % 0,0 l/m 0,2 km/h (0 Bft) NO 45 8,3 C 9,1 C 0,0 km/h (0 Bft)
04.06.2012 06:00 9,2 C 94 % 0,0 l/m 0,2 km/h (0 Bft) NO 45 8,3 C 9,1 C 0,0 km/h (0 Bft)
04.06.2012 06:05 9,2 C 94 % 0,0 l/m 0,2 km/h (0 Bft) NO 45 8,3 C 9,1 C 0,0 km/h (0 Bft)
04.06.2012 06:10 9,3 C 95 % 0,7 l/m 0,5 km/h (0 Bft) O-SO 112 8,5 C 9,2 C 1,6 km/h (1 Bft)
04.06.2012 06:15 9,3 C 95 % 0,0 l/m 0,8 km/h (0 Bft) SO 135 8,5 C 9,2 C 0,0 km/h (0 Bft)
04.06.2012 06:20 9,3 C 95 % 0,0 l/m 0,6 km/h (0 Bft) N 360 8,5 C 9,2 C 0,0 km/h (0 Bft)
04.06.2012 06:25 9,3 C 95 % 0,0 l/m 0,3 km/h (0 Bft) O 90 8,5 C 9,2 C 2,1 km/h (1 Bft)
04.06.2012 06:30 9,2 C 95 % 0,0 l/m 0,0 km/h (0 Bft) N 360 8,4 C 9,2 C 0,0 km/h (0 Bft)
04.06.2012 06:35 9,2 C 95 % 0,0 l/m 0,2 km/h (0 Bft) N-NO 22 8,4 C 9,1 C 0,0 km/h (0 Bft)
04.06.2012 06:40 9,2 C 95 % 0,0 l/m 0,2 km/h (0 Bft) O-SO 112 8,4 C 9,1 C 0,0 km/h (0 Bft)
04.06.2012 06:45 9,2 C 95 % 0,7 l/m 0,0 km/h (0 Bft) NO 45 8,4 C 9,1 C 0,0 km/h (0 Bft)
04.06.2012 06:50 9,3 C 95 % 0,0 l/m 0,0 km/h (0 Bft) O 90 8,5 C 9,2 C 0,0 km/h (0 Bft)
04.06.2012 06:55 9,4 C 95 % 0,0 l/m 0,0 km/h (0 Bft) S-SO 157 8,6 C 9,2 C 0,0 km/h (0 Bft)
04.06.2012 07:00 9,5 C 95 % 0,0 l/m 0,2 km/h (0 Bft) SO 135 8,7 C 9,3 C 0,0 km/h (0 Bft)
04.06.2012 07:05 9,5 C 95 % 0,0 l/m 0,8 km/h (0 Bft) N-NO 22 8,7 C 9,3 C 2,1 km/h (1 Bft)
04.06.2012 07:10 9,3 C 95 % 0,7 l/m 2,4 km/h (1 Bft) NO 45 8,5 C 9,3 C 3,1 km/h (1 Bft)
04.06.2012 07:15 9,2 C 95 % 0,0 l/m 3,2 km/h (1 Bft) O 90 8,4 C 9,1 C 4,7 km/h (1 Bft)
04.06.2012 07:20 9,1 C 95 % 0,0 l/m 3,1 km/h (1 Bft) O 90 8,3 C 9,0 C 5,0 km/h (1 Bft)
04.06.2012 07:25 9,1 C 95 % 0,0 l/m 3,4 km/h (1 Bft) O-SO 112 8,3 C 8,9 C 6,0 km/h (2 Bft)
04.06.2012 07:30 9,0 C 95 % 0,0 l/m 2,3 km/h (1 Bft) O-SO 112 8,2 C 8,9 C 1,6 km/h (1 Bft)
04.06.2012 07:35 9,0 C 95 % 0,0 l/m 1,3 km/h (1 Bft) O-NO 67 8,2 C 8,9 C 3,5 km/h (1 Bft)
04.06.2012 07:40 8,9 C 95 % 0,7 l/m 1,9 km/h (1 Bft) SO 135 8,1 C 8,8 C 4,2 km/h (1 Bft)
04.06.2012 07:45 8,9 C 95 % 0,0 l/m 2,4 km/h (1 Bft) SO 135 8,1 C 8,7 C 5,5 km/h (1 Bft)
04.06.2012 07:50 8,9 C 95 % 0,0 l/m 1,9 km/h (1 Bft) N-NO 22 8,1 C 8,7 C 0,0 km/h (0 Bft)
04.06.2012 07:55 8,8 C 95 % 0,0 l/m 1,8 km/h (1 Bft) O-SO 112 8,0 C 8,7 C 2,3 km/h (1 Bft)
04.06.2012 08:00 8,9 C 95 % 0,0 l/m 1,3 km/h (1 Bft) O 90 8,1 C 8,7 C 4,7 km/h (1 Bft)
04.06.2012 08:05 8,9 C 95 % 0,7 l/m 0,8 km/h (0 Bft) SO 135 8,1 C 8,7 C 4,2 km/h (1 Bft)
04.06.2012 08:10 9,0 C 95 % 0,0 l/m 1,1 km/h (1 Bft) O-SO 112 8,2 C 8,8 C 2,4 km/h (1 Bft)
04.06.2012 08:15 9,0 C 95 % 0,0 l/m 1,1 km/h (1 Bft) W 270 8,2 C 8,8 C 0,0 km/h (0 Bft)
04.06.2012 08:20 9,0 C 95 % 0,0 l/m 1,0 km/h (0 Bft) NO 45 8,2 C 8,8 C 0,0 km/h (0 Bft)
04.06.2012 08:25 9,0 C 95 % 0,0 l/m 0,8 km/h (0 Bft) S-SO 157 8,2 C 8,9 C 0,0 km/h (0 Bft)
04.06.2012 08:30 9,0 C 95 % 0,0 l/m 0,2 km/h (0 Bft) S-SW 202 8,2 C 9,0 C 0,0 km/h (0 Bft)
04.06.2012 08:35 9,2 C 95 % 0,0 l/m 0,6 km/h (0 Bft) NO 45 8,4 C 9,0 C 1,9 km/h (1 Bft)
04.06.2012 08:40 9,2 C 95 % 0,0 l/m 1,1 km/h (1 Bft) O 90 8,4 C 9,0 C 2,4 km/h (1 Bft)
04.06.2012 08:45 9,3 C 95 % 0,7 l/m 0,8 km/h (0 Bft) S-SW 202 8,5 C 9,0 C 0,0 km/h (0 Bft)
04.06.2012 08:50 9,3 C 95 % 0,0 l/m 0,3 km/h (0 Bft) W-SW 247 8,5 C 9,2 C 0,0 km/h (0 Bft)
04.06.2012 08:55 9,4 C 95 % 0,0 l/m 0,2 km/h (0 Bft) W-SW 247 8,6 C 9,2 C 0,0 km/h (0 Bft)
04.06.2012 09:00 9,4 C 95 % 0,0 l/m 0,0 km/h (0 Bft) NW 315 8,6 C 9,2 C 0,0 km/h (0 Bft)
04.06.2012 09:05 9,4 C 95 % 0,0 l/m 0,0 km/h (0 Bft) W-SW 247 8,6 C 9,4 C 0,0 km/h (0 Bft)
04.06.2012 09:10 9,5 C 95 % 0,0 l/m 0,0 km/h (0 Bft) N-NO 22 8,7 C 9,5 C 0,0 km/h (0 Bft)
04.06.2012 09:15 9,5 C 95 % 0,0 l/m 0,0 km/h (0 Bft) N 360 8,7 C 9,6 C 0,0 km/h (0 Bft)
04.06.2012 09:20 9,6 C 95 % 0,7 l/m 0,0 km/h (0 Bft) N 360 8,8 C 9,6 C 0,0 km/h (0 Bft)
04.06.2012 09:25 9,7 C 95 % 0,0 l/m 0,0 km/h (0 Bft) S 180 8,9 C 9,6 C 0,0 km/h (0 Bft)
04.06.2012 09:30 9,7 C 95 % 0,0 l/m 0,3 km/h (0 Bft) O-SO 112 8,9 C 9,6 C 0,0 km/h (0 Bft)
04.06.2012 09:35 9,7 C 95 % 0,0 l/m 0,5 km/h (0 Bft) O 90 8,9 C 9,6 C 2,1 km/h (1 Bft)
04.06.2012 09:40 9,7 C 95 % 0,7 l/m 0,5 km/h (0 Bft) SO 135 8,9 C 9,6 C 0,0 km/h (0 Bft)
04.06.2012 09:45 9,7 C 95 % 0,0 l/m 0,5 km/h (0 Bft) N-NO 22 8,9 C 9,6 C 0,0 km/h (0 Bft)
04.06.2012 09:50 9,7 C 95 % 0,0 l/m 0,0 km/h (0 Bft) S 180 8,9 C 9,7 C 0,0 km/h (0 Bft)
04.06.2012 09:55 9,8 C 95 % 0,0 l/m 0,0 km/h (0 Bft) O-SO 112 9,0 C 9,8 C 0,0 km/h (0 Bft)
04.06.2012 10:00 9,9 C 95 % 0,0 l/m 0,0 km/h (0 Bft) NO 45 9,1 C 9,9 C 0,0 km/h (0 Bft)
04.06.2012 10:05 9,9 C 95 % 0,7 l/m 0,0 km/h (0 Bft) N-NW 337 9,1 C 10,0 C 0,0 km/h (0 Bft)
04.06.2012 10:10 10,1 C 95 % 0,0 l/m 0,0 km/h (0 Bft) N-NO 22 9,3 C 10,1 C 0,0 km/h (0 Bft)
04.06.2012 10:15 10,1 C 95 % 0,0 l/m 0,2 km/h (0 Bft) W 270 9,3 C 10,2 C 0,0 km/h (0 Bft)
04.06.2012 10:20 10,4 C 95 % 0,0 l/m 0,3 km/h (0 Bft) SO 135 9,6 C 10,3 C 2,6 km/h (1 Bft)
04.06.2012 10:25 10,3 C 95 % 0,0 l/m 0,2 km/h (0 Bft) N 360 9,5 C 10,5 C 0,0 km/h (0 Bft)
04.06.2012 10:30 10,5 C 95 % 0,0 l/m 0,2 km/h (0 Bft) O-SO 112 9,7 C 10,6 C 0,0 km/h (0 Bft)
04.06.2012 10:35 10,7 C 95 % 0,0 l/m 0,2 km/h (0 Bft) NO 45 9,9 C 10,8 C 0,0 km/h (0 Bft)
04.06.2012 10:40 10,7 C 95 % 0,0 l/m 0,3 km/h (0 Bft) W-NW 292 9,9 C 11,0 C 0,0 km/h (0 Bft)
04.06.2012 10:45 11,0 C 94 % 0,0 l/m 0,6 km/h (0 Bft) O-SO 112 10,1 C 11,2 C 3,5 km/h (1 Bft)
04.06.2012 10:50 10,8 C 94 % 0,0 l/m 1,3 km/h (1 Bft) S-SW 202 9,9 C 11,2 C 0,0 km/h (0 Bft)
04.06.2012 10:55 11,1 C 94 % 0,0 l/m 1,3 km/h (1 Bft) O 90 10,2 C 11,5 C 0,0 km/h (0 Bft)
04.06.2012 11:00 11,2 C 94 % 0,0 l/m 0,8 km/h (0 Bft) O 90 10,3 C 11,7 C 0,0 km/h (0 Bft)
04.06.2012 11:05 11,3 C 94 % 0,0 l/m 0,8 km/h (0 Bft) O-SO 112 10,4 C 12,0 C 2,7 km/h (1 Bft)
04.06.2012 11:10 11,4 C 94 % 0,0 l/m 0,8 km/h (0 Bft) S 180 10,5 C 12,2 C 0,0 km/h (0 Bft)
04.06.2012 11:15 11,5 C 94 % 0,0 l/m 1,0 km/h (0 Bft) SO 135 10,6 C 12,4 C 2,3 km/h (1 Bft)
04.06.2012 11:20 11,3 C 94 % 0,0 l/m 1,1 km/h (1 Bft) NW 315 10,4 C 12,7 C 1,8 km/h (1 Bft)
04.06.2012 11:25 11,0 C 93 % 0,0 l/m 1,4 km/h (1 Bft) S 180 9,9 C 12,7 C 1,9 km/h (1 Bft)
04.06.2012 11:30 11,3 C 93 % 0,0 l/m 1,0 km/h (0 Bft) S 180 10,2 C 12,7 C 0,0 km/h (0 Bft)
04.06.2012 11:35 11,3 C 93 % 0,0 l/m 0,5 km/h (0 Bft) O-SO 112 10,2 C 12,9 C 0,0 km/h (0 Bft)
04.06.2012 11:40 11,1 C 93 % 0,0 l/m 0,2 km/h (0 Bft) W 270 10,0 C 13,1 C 0,0 km/h (0 Bft)
04.06.2012 11:45 11,4 C 93 % 0,0 l/m 0,2 km/h (0 Bft) W-SW 247 10,3 C 13,1 C 0,0 km/h (0 Bft)
04.06.2012 11:50 11,3 C 92 % 0,0 l/m 0,2 km/h (0 Bft) S-SO 157 10,0 C 13,4 C 0,0 km/h (0 Bft)
04.06.2012 11:55 11,5 C 92 % 0,0 l/m 0,2 km/h (0 Bft) O-SO 112 10,2 C 13,6 C 0,0 km/h (0 Bft)
04.06.2012 12:00 11,5 C 92 % 0,0 l/m 0,3 km/h (0 Bft) N-NW 337 10,2 C 13,7 C 0,0 km/h (0 Bft)
04.06.2012 12:05 11,7 C 92 % 0,0 l/m 0,3 km/h (0 Bft) N 360 10,4 C 13,9 C 3,2 km/h (1 Bft)
04.06.2012 12:10 12,1 C 92 % 0,0 l/m 0,5 km/h (0 Bft) O-SO 112 10,8 C 14,2 C 0,0 km/h (0 Bft)
04.06.2012 12:15 12,1 C 92 % 0,0 l/m 1,0 km/h (0 Bft) N 360 10,8 C 14,4 C 3,1 km/h (1 Bft)
04.06.2012 12:20 12,2 C 91 % 0,0 l/m 0,6 km/h (0 Bft) SW 225 10,8 C 14,5 C 0,0 km/h (0 Bft)
04.06.2012 12:25 12,1 C 91 % 0,0 l/m 0,3 km/h (0 Bft) S-SW 202 10,7 C 14,6 C 0,0 km/h (0 Bft)
04.06.2012 12:30 12,6 C 91 % 0,0 l/m 0,2 km/h (0 Bft) S-SW 202 11,2 C 15,1 C 0,0 km/h (0 Bft)
04.06.2012 12:35 12,6 C 90 % 0,0 l/m 0,3 km/h (0 Bft) S-SO 157 11,0 C 15,5 C 0,0 km/h (0 Bft)
04.06.2012 12:40 13,1 C 89 % 0,0 l/m 0,3 km/h (0 Bft) S-SW 202 11,3 C 15,8 C 0,0 km/h (0 Bft)
04.06.2012 12:45 13,3 C 89 % 0,0 l/m 0,3 km/h (0 Bft) N-NO 22 11,5 C 16,1 C 3,4 km/h (1 Bft)
04.06.2012 12:50 13,1 C 88 % 0,0 l/m 1,0 km/h (0 Bft) W-NW 292 11,2 C 16,2 C 0,0 km/h (0 Bft)
04.06.2012 12:55 12,6 C 88 % 0,0 l/m 1,0 km/h (0 Bft) W 270 10,7 C 16,4 C 0,0 km/h (0 Bft)
04.06.2012 13:00 12,8 C 88 % 0,0 l/m 0,6 km/h (0 Bft) O-SO 112 10,9 C 16,5 C 1,9 km/h (1 Bft)
04.06.2012 13:05 13,2 C 87 % 0,0 l/m 1,0 km/h (0 Bft) O-SO 112 11,1 C 16,6 C 0,0 km/h (0 Bft)
04.06.2012 13:10 13,3 C 87 % 0,0 l/m 1,3 km/h (1 Bft) NO 45 11,2 C 16,8 C 5,1 km/h (1 Bft)
04.06.2012 13:15 13,3 C 87 % 0,0 l/m 1,0 km/h (0 Bft) N 360 11,2 C 16,7 C 0,0 km/h (0 Bft)
04.06.2012 13:20 13,6 C 87 % 0,0 l/m 0,6 km/h (0 Bft) N-NO 22 11,5 C 17,3 C 0,0 km/h (0 Bft)
04.06.2012 13:25 13,9 C 85 % 0,0 l/m 0,6 km/h (0 Bft) NO 45 11,4 C 17,7 C 4,0 km/h (1 Bft)
04.06.2012 13:30 13,8 C 84 % 0,0 l/m 0,8 km/h (0 Bft) W-SW 247 11,1 C 18,4 C 0,0 km/h (0 Bft)
04.06.2012 13:35 13,7 C 82 % 0,0 l/m 1,1 km/h (1 Bft) N-NW 337 10,7 C 18,7 C 3,5 km/h (1 Bft)
04.06.2012 13:40 13,8 C 81 % 0,0 l/m 1,8 km/h (1 Bft) S-SW 202 10,6 C 18,6 C 1,8 km/h (1 Bft)
04.06.2012 13:45 13,9 C 81 % 0,0 l/m 2,6 km/h (1 Bft) W-SW 247 10,7 C 18,5 C 4,0 km/h (1 Bft)
04.06.2012 13:50 14,4 C 83 % 0,0 l/m 2,4 km/h (1 Bft) W 270 11,5 C 18,3 C 2,1 km/h (1 Bft)
04.06.2012 13:55 14,7 C 82 % 0,0 l/m 1,9 km/h (1 Bft) S 180 11,7 C 18,4 C 1,9 km/h (1 Bft)
04.06.2012 14:00 15,6 C 80 % 0,0 l/m 1,4 km/h (1 Bft) W-SW 247 12,2 C 19,5 C 2,6 km/h (1 Bft)
04.06.2012 14:05 16,0 C 78 % 0,0 l/m 1,4 km/h (1 Bft) W-SW 247 12,2 C 20,2 C 4,7 km/h (1 Bft)
04.06.2012 14:10 15,9 C 77 % 0,0 l/m 2,4 km/h (1 Bft) S-SO 157 11,9 C 20,6 C 4,5 km/h (1 Bft)
04.06.2012 14:15 16,1 C 75 % 0,0 l/m 2,6 km/h (1 Bft) O 90 11,7 C 20,7 C 2,6 km/h (1 Bft)
04.06.2012 14:20 16,0 C 75 % 0,0 l/m 3,1 km/h (1 Bft) SO 135 11,6 C 20,9 C 3,1 km/h (1 Bft)
04.06.2012 14:25 15,7 C 72 % 0,0 l/m 3,1 km/h (1 Bft) N-NW 337 10,7 C 20,6 C 3,4 km/h (1 Bft)
04.06.2012 14:30 16,8 C 76 % 0,0 l/m 1,8 km/h (1 Bft) S-SW 202 12,5 C 21,3 C 0,0 km/h (0 Bft)
04.06.2012 14:35 16,7 C 77 % 0,0 l/m 2,1 km/h (1 Bft) W-NW 292 12,6 C 21,9 C 1,9 km/h (1 Bft)
04.06.2012 14:40 16,5 C 75 % 0,0 l/m 2,7 km/h (1 Bft) W-SW 247 12,1 C 21,4 C 2,3 km/h (1 Bft)
04.06.2012 14:45 16,7 C 75 % 0,0 l/m 2,1 km/h (1 Bft) O-SO 112 12,2 C 21,7 C 1,8 km/h (1 Bft)
04.06.2012 14:50 16,9 C 70 % 0,0 l/m 2,7 km/h (1 Bft) W 270 11,4 C 21,8 C 7,2 km/h (2 Bft)
04.06.2012 14:55 16,1 C 70 % 0,0 l/m 4,0 km/h (1 Bft) N 360 10,6 C 21,3 C 3,5 km/h (1 Bft)
04.06.2012 15:00 16,0 C 76 % 0,0 l/m 2,7 km/h (1 Bft) W-SW 247 11,8 C 20,6 C 3,1 km/h (1 Bft)
04.06.2012 15:05 15,8 C 75 % 0,0 l/m 2,1 km/h (1 Bft) W 270 11,4 C 20,1 C 3,7 km/h (1 Bft)
04.06.2012 15:10 16,2 C 76 % 0,0 l/m 2,6 km/h (1 Bft) NW 315 12,0 C 20,0 C 1,9 km/h (1 Bft)
04.06.2012 15:15 16,2 C 76 % 0,0 l/m 2,4 km/h (1 Bft) S-SW 202 12,0 C 20,0 C 4,5 km/h (1 Bft)
04.06.2012 15:20 16,6 C 70 % 0,0 l/m 2,4 km/h (1 Bft) W 270 11,1 C 20,6 C 2,6 km/h (1 Bft)
04.06.2012 15:25 17,7 C 73 % 0,0 l/m 3,4 km/h (1 Bft) W-SW 247 12,8 C 21,6 C 7,1 km/h (2 Bft)
04.06.2012 15:30 16,6 C 76 % 0,0 l/m 2,6 km/h (1 Bft) O-SO 112 12,3 C 21,5 C 1,6 km/h (1 Bft)
04.06.2012 15:35 15,9 C 74 % 0,0 l/m 3,4 km/h (1 Bft) S 180 11,3 C 20,8 C 4,8 km/h (1 Bft)
04.06.2012 15:40 15,1 C 74 % 0,0 l/m 5,8 km/h (2 Bft) S-SW 202 10,5 C 18,5 C 9,3 km/h (2 Bft)
04.06.2012 15:45 15,0 C 73 % 0,0 l/m 7,1 km/h (2 Bft) O-NO 67 10,2 C 16,9 C 8,9 km/h (2 Bft)
04.06.2012 15:50 14,8 C 76 % 0,0 l/m 6,6 km/h (2 Bft) S 180 10,6 C 16,4 C 12,7 km/h (3 Bft)
04.06.2012 15:55 14,9 C 76 % 0,0 l/m 6,1 km/h (2 Bft) O-SO 112 10,7 C 16,4 C 10,8 km/h (2 Bft)
04.06.2012 16:00 15,5 C 78 % 0,0 l/m 5,0 km/h (1 Bft) N 360 11,7 C 16,6 C 4,2 km/h (1 Bft)
04.06.2012 16:05 15,4 C 76 % 0,0 l/m 4,7 km/h (1 Bft) SO 135 11,2 C 17,0 C 5,3 km/h (1 Bft)
04.06.2012 16:10 16,3 C 73 % 0,0 l/m 5,6 km/h (1 Bft) S 180 11,4 C 17,4 C 8,4 km/h (2 Bft)
04.06.2012 16:15 15,9 C 76 % 0,0 l/m 5,8 km/h (2 Bft) S-SO 157 11,7 C 17,6 C 2,9 km/h (1 Bft)
04.06.2012 16:20 14,9 C 74 % 0,0 l/m 5,5 km/h (1 Bft) S-SO 157 10,3 C 17,1 C 7,2 km/h (2 Bft)
04.06.2012 16:25 14,7 C 78 % 0,0 l/m 4,7 km/h (1 Bft) O-SO 112 10,9 C 16,6 C 5,6 km/h (1 Bft)
04.06.2012 16:30 14,2 C 81 % 0,0 l/m 3,2 km/h (1 Bft) SO 135 11,0 C 15,4 C 1,9 km/h (1 Bft)
04.06.2012 16:35 13,8 C 83 % 0,0 l/m 2,4 km/h (1 Bft) O 90 11,0 C 14,7 C 3,4 km/h (1 Bft)
04.06.2012 16:40 13,9 C 85 % 0,0 l/m 1,3 km/h (1 Bft) NO 45 11,4 C 14,6 C 0,0 km/h (0 Bft)
04.06.2012 16:45 14,7 C 83 % 0,0 l/m 2,1 km/h (1 Bft) O-SO 112 11,8 C 15,1 C 3,1 km/h (1 Bft)
04.06.2012 16:50 14,7 C 80 % 0,0 l/m 4,7 km/h (1 Bft) O-SO 112 11,3 C 15,5 C 5,6 km/h (1 Bft)
04.06.2012 16:55 14,9 C 81 % 0,0 l/m 5,5 km/h (1 Bft) S 180 11,7 C 15,7 C 4,5 km/h (1 Bft)
04.06.2012 17:00 15,4 C 80 % 0,0 l/m 5,1 km/h (1 Bft) S-SO 157 12,0 C 16,1 C 3,4 km/h (1 Bft)
04.06.2012 17:05 15,8 C 77 % 0,0 l/m 5,0 km/h (1 Bft) O-SO 112 11,8 C 16,6 C 7,7 km/h (2 Bft)
04.06.2012 17:10 16,3 C 75 % 0,0 l/m 5,5 km/h (1 Bft) SO 135 11,9 C 18,0 C 10,3 km/h (2 Bft)
04.06.2012 17:15 16,3 C 71 % 0,0 l/m 5,8 km/h (2 Bft) O-SO 112 11,0 C 18,7 C 4,2 km/h (1 Bft)
04.06.2012 17:20 15,5 C 74 % 0,0 l/m 5,6 km/h (1 Bft) O-SO 112 10,9 C 17,9 C 7,9 km/h (2 Bft)
04.06.2012 17:25 14,8 C 73 % 0,0 l/m 6,3 km/h (2 Bft) SO 135 10,0 C 17,0 C 7,6 km/h (2 Bft)
04.06.2012 17:30 14,6 C 75 % 0,0 l/m 6,9 km/h (2 Bft) SO 135 10,2 C 15,7 C 6,4 km/h (2 Bft)
04.06.2012 17:35 15,0 C 72 % 0,0 l/m 7,1 km/h (2 Bft) S 180 10,0 C 15,6 C 11,3 km/h (2 Bft)
04.06.2012 17:40 15,2 C 70 % 0,0 l/m 10,1 km/h (2 Bft) O-SO 112 9,8 C 14,4 C 24,5 km/h (4 Bft)
04.06.2012 17:45 14,7 C 70 % 0,0 l/m 11,4 km/h (2 Bft) SO 135 9,3 C 13,4 C 15,1 km/h (3 Bft)
04.06.2012 17:50 14,0 C 70 % 0,0 l/m 11,1 km/h (2 Bft) SO 135 8,6 C 12,3 C 12,9 km/h (3 Bft)
04.06.2012 17:55 14,1 C 73 % 0,0 l/m 9,7 km/h (2 Bft) O-SO 112 9,3 C 12,6 C 10,1 km/h (2 Bft)
04.06.2012 18:00 14,0 C 73 % 0,0 l/m 9,7 km/h (2 Bft) O-SO 112 9,2 C 12,0 C 14,5 km/h (3 Bft)
04.06.2012 18:05 13,8 C 74 % 0,0 l/m 9,5 km/h (2 Bft) O-SO 112 9,2 C 11,9 C 10,0 km/h (2 Bft)
04.06.2012 18:10 13,3 C 73 % 0,0 l/m 10,1 km/h (2 Bft) O-SO 112 8,6 C 11,2 C 12,1 km/h (2 Bft)
04.06.2012 18:15 13,1 C 73 % 0,0 l/m 9,2 km/h (2 Bft) N 360 8,4 C 11,4 C 5,6 km/h (1 Bft)
04.06.2012 18:20 12,7 C 75 % 0,0 l/m 9,5 km/h (2 Bft) O-SO 112 8,4 C 10,7 C 11,7 km/h (2 Bft)
04.06.2012 18:25 12,5 C 76 % 0,0 l/m 8,9 km/h (2 Bft) S 180 8,4 C 10,2 C 9,0 km/h (2 Bft)
04.06.2012 18:30 12,7 C 76 % 0,0 l/m 7,9 km/h (2 Bft) O-SO 112 8,6 C 10,7 C 10,5 km/h (2 Bft)
04.06.2012 18:35 12,6 C 75 % 0,0 l/m 6,4 km/h (2 Bft) O 90 8,3 C 11,9 C 5,8 km/h (2 Bft)
04.06.2012 18:40 12,8 C 75 % 0,0 l/m 6,4 km/h (2 Bft) SO 135 8,5 C 12,1 C 9,0 km/h (2 Bft)
04.06.2012 18:45 13,2 C 73 % 0,0 l/m 7,2 km/h (2 Bft) O 90 8,5 C 12,0 C 7,4 km/h (2 Bft)
04.06.2012 18:50 13,1 C 71 % 0,0 l/m 7,6 km/h (2 Bft) O-SO 112 8,0 C 12,0 C 9,3 km/h (2 Bft)
04.06.2012 18:55 12,8 C 71 % 0,0 l/m 8,5 km/h (2 Bft) O-SO 112 7,7 C 11,3 C 18,8 km/h (3 Bft)
04.06.2012 19:00 12,4 C 73 % 0,0 l/m 9,2 km/h (2 Bft) O-SO 112 7,7 C 10,2 C 11,1 km/h (2 Bft)
04.06.2012 19:05 12,3 C 73 % 0,0 l/m 8,4 km/h (2 Bft) O-SO 112 7,6 C 10,6 C 6,9 km/h (2 Bft)
04.06.2012 19:10 12,3 C 76 % 0,0 l/m 6,3 km/h (2 Bft) S-SW 202 8,2 C 11,7 C 1,9 km/h (1 Bft)
04.06.2012 19:15 12,3 C 75 % 0,0 l/m 5,3 km/h (1 Bft) SO 135 8,0 C 11,8 C 7,1 km/h (2 Bft)
04.06.2012 19:20 12,3 C 76 % 0,0 l/m 4,3 km/h (1 Bft) O 90 8,2 C 12,0 C 6,3 km/h (2 Bft)
04.06.2012 19:25 12,3 C 76 % 0,0 l/m 4,5 km/h (1 Bft) O-SO 112 8,2 C 12,1 C 8,2 km/h (2 Bft)
04.06.2012 19:30 12,2 C 76 % 0,0 l/m 4,5 km/h (1 Bft) N-NO 22 8,1 C 12,2 C 2,9 km/h (1 Bft)
04.06.2012 19:35 12,2 C 75 % 0,0 l/m 4,0 km/h (1 Bft) SO 135 7,9 C 12,2 C 2,7 km/h (1 Bft)
04.06.2012 19:40 12,1 C 74 % 0,0 l/m 4,2 km/h (1 Bft) O-SO 112 7,6 C 12,2 C 5,3 km/h (1 Bft)
04.06.2012 19:45 12,0 C 74 % 0,0 l/m 4,3 km/h (1 Bft) SO 135 7,5 C 12,2 C 2,1 km/h (1 Bft)
04.06.2012 19:50 12,1 C 73 % 0,0 l/m 5,0 km/h (1 Bft) SO 135 7,4 C 12,2 C 3,7 km/h (1 Bft)
04.06.2012 19:55 12,1 C 72 % 0,0 l/m 5,0 km/h (1 Bft) O-SO 112 7,2 C 12,2 C 8,9 km/h (2 Bft)
04.06.2012 20:00 12,1 C 72 % 0,0 l/m 4,5 km/h (1 Bft) SO 135 7,2 C 12,3 C 2,6 km/h (1 Bft)
04.06.2012 20:05 12,1 C 72 % 0,0 l/m 4,7 km/h (1 Bft) SO 135 7,2 C 12,4 C 6,3 km/h (2 Bft)
04.06.2012 20:10 12,2 C 70 % 0,0 l/m 4,7 km/h (1 Bft) O-SO 112 6,9 C 12,4 C 9,2 km/h (2 Bft)
04.06.2012 20:15 12,3 C 69 % 0,0 l/m 4,5 km/h (1 Bft) SO 135 6,8 C 12,6 C 6,1 km/h (2 Bft)
04.06.2012 20:20 12,3 C 69 % 0,0 l/m 5,3 km/h (1 Bft) NO 45 6,8 C 12,6 C 6,1 km/h (2 Bft)
04.06.2012 20:25 12,1 C 69 % 0,0 l/m 5,3 km/h (1 Bft) S 180 6,6 C 12,5 C 4,5 km/h (1 Bft)
04.06.2012 20:30 11,8 C 70 % 0,0 l/m 4,7 km/h (1 Bft) O-SO 112 6,5 C 12,2 C 5,3 km/h (1 Bft)
04.06.2012 20:35 11,7 C 69 % 0,0 l/m 5,0 km/h (1 Bft) N 360 6,2 C 12,2 C 8,2 km/h (2 Bft)
04.06.2012 20:40 11,6 C 69 % 0,0 l/m 5,8 km/h (2 Bft) O-SO 112 6,1 C 11,8 C 6,0 km/h (2 Bft)
04.06.2012 20:45 11,6 C 69 % 0,0 l/m 6,3 km/h (2 Bft) NO 45 6,1 C 11,7 C 4,7 km/h (1 Bft)
04.06.2012 20:50 11,5 C 69 % 0,0 l/m 7,2 km/h (2 Bft) S 180 6,0 C 11,1 C 7,7 km/h (2 Bft)
04.06.2012 20:55 11,4 C 70 % 0,0 l/m 6,9 km/h (2 Bft) O-SO 112 6,1 C 11,3 C 9,2 km/h (2 Bft)
04.06.2012 21:00 11,4 C 69 % 0,0 l/m 5,6 km/h (1 Bft) O-SO 112 5,9 C 11,5 C 6,1 km/h (2 Bft)
04.06.2012 21:05 11,3 C 70 % 0,0 l/m 4,7 km/h (1 Bft) O-NO 67 6,0 C 11,6 C 2,7 km/h (1 Bft)
04.06.2012 21:10 10,9 C 71 % 0,0 l/m 2,1 km/h (1 Bft) O-SO 112 5,9 C 11,3 C 0,0 km/h (0 Bft)
04.06.2012 21:15 10,7 C 74 % 0,0 l/m 1,3 km/h (1 Bft) N-NO 22 6,3 C 11,0 C 4,3 km/h (1 Bft)
04.06.2012 21:20 10,5 C 74 % 0,0 l/m 0,8 km/h (0 Bft) O 90 6,1 C 10,7 C 0,0 km/h (0 Bft)
04.06.2012 21:25 10,5 C 74 % 0,0 l/m 0,8 km/h (0 Bft) NO 45 6,1 C 10,5 C 0,0 km/h (0 Bft)
04.06.2012 21:30 10,2 C 75 % 0,0 l/m 1,4 km/h (1 Bft) N 360 6,0 C 10,3 C 3,9 km/h (1 Bft)
04.06.2012 21:35 10,2 C 76 % 0,0 l/m 1,6 km/h (1 Bft) SO 135 6,2 C 10,3 C 5,0 km/h (1 Bft)
04.06.2012 21:40 10,4 C 75 % 0,0 l/m 2,1 km/h (1 Bft) SO 135 6,2 C 10,2 C 9,2 km/h (2 Bft)
04.06.2012 21:45 10,5 C 75 % 0,0 l/m 2,4 km/h (1 Bft) SO 135 6,3 C 10,3 C 5,3 km/h (1 Bft)
04.06.2012 21:50 10,7 C 74 % 0,0 l/m 5,0 km/h (1 Bft) SO 135 6,3 C 10,3 C 7,4 km/h (2 Bft)
04.06.2012 21:55 11,0 C 72 % 0,0 l/m 8,2 km/h (2 Bft) SO 135 6,2 C 8,7 C 8,4 km/h (2 Bft)
04.06.2012 22:00 11,1 C 71 % 0,0 l/m 11,3 km/h (2 Bft) O 90 6,0 C 6,8 C 11,4 km/h (2 Bft)
04.06.2012 22:05 11,2 C 70 % 0,0 l/m 11,4 km/h (2 Bft) S-SO 157 5,9 C 6,9 C 20,1 km/h (4 Bft)
04.06.2012 22:10 11,2 C 70 % 0,0 l/m 11,6 km/h (2 Bft) O-SO 112 5,9 C 6,9 C 12,1 km/h (2 Bft)
04.06.2012 22:15 11,0 C 71 % 0,0 l/m 10,6 km/h (2 Bft) SO 135 5,9 C 7,6 C 12,4 km/h (3 Bft)
04.06.2012 22:20 11,1 C 72 % 0,0 l/m 8,0 km/h (2 Bft) O 90 6,2 C 9,5 C 5,6 km/h (1 Bft)
04.06.2012 22:25 11,1 C 71 % 0,0 l/m 7,2 km/h (2 Bft) O-NO 67 6,0 C 10,2 C 8,9 km/h (2 Bft)
04.06.2012 22:30 11,2 C 70 % 0,0 l/m 7,2 km/h (2 Bft) SO 135 5,9 C 10,3 C 14,2 km/h (3 Bft)
04.06.2012 22:35 11,3 C 69 % 0,0 l/m 7,4 km/h (2 Bft) SO 135 5,8 C 10,2 C 10,6 km/h (2 Bft)
04.06.2012 22:40 11,2 C 69 % 0,0 l/m 5,8 km/h (2 Bft) SO 135 5,7 C 11,1 C 4,5 km/h (1 Bft)
04.06.2012 22:45 11,3 C 68 % 0,0 l/m 6,1 km/h (2 Bft) O-SO 112 5,6 C 11,0 C 3,9 km/h (1 Bft)
04.06.2012 22:50 11,2 C 69 % 0,0 l/m 6,8 km/h (2 Bft) O-SO 112 5,7 C 10,6 C 11,4 km/h (2 Bft)
04.06.2012 22:55 11,1 C 69 % 0,0 l/m 6,4 km/h (2 Bft) O-SO 112 5,6 C 10,9 C 8,7 km/h (2 Bft)
04.06.2012 23:00 11,0 C 70 % 0,0 l/m 5,3 km/h (1 Bft) O-SO 112 5,7 C 11,1 C 0,0 km/h (0 Bft)
04.06.2012 23:05 10,9 C 71 % 0,0 l/m 4,0 km/h (1 Bft) NO 45 5,9 C 11,2 C 5,8 km/h (2 Bft)
04.06.2012 23:10 10,9 C 71 % 0,0 l/m 3,5 km/h (1 Bft) N 360 5,9 C 11,1 C 2,7 km/h (1 Bft)
04.06.2012 23:15 10,8 C 71 % 0,0 l/m 3,9 km/h (1 Bft) SO 135 5,8 C 11,0 C 8,9 km/h (2 Bft)
04.06.2012 23:20 10,8 C 72 % 0,0 l/m 3,7 km/h (1 Bft) O-SO 112 6,0 C 10,9 C 5,3 km/h (1 Bft)
04.06.2012 23:25 10,7 C 72 % 0,0 l/m 3,2 km/h (1 Bft) O-SO 112 5,9 C 10,8 C 2,4 km/h (1 Bft)
04.06.2012 23:30 10,6 C 72 % 0,0 l/m 2,9 km/h (1 Bft) O-SO 112 5,8 C 10,8 C 2,1 km/h (1 Bft)
04.06.2012 23:35 10,6 C 73 % 0,0 l/m 3,2 km/h (1 Bft) O-NO 67 6,0 C 10,8 C 2,6 km/h (1 Bft)
04.06.2012 23:40 10,4 C 73 % 0,0 l/m 2,9 km/h (1 Bft) O 90 5,8 C 10,6 C 2,4 km/h (1 Bft)
04.06.2012 23:45 10,2 C 75 % 0,0 l/m 2,4 km/h (1 Bft) O 90 6,0 C 10,5 C 1,6 km/h (1 Bft)
04.06.2012 23:50 9,7 C 76 % 0,0 l/m 1,1 km/h (1 Bft) O 90 5,7 C 10,1 C 3,2 km/h (1 Bft)
04.06.2012 23:55 9,7 C 77 % 0,0 l/m 1,3 km/h (1 Bft) NO 45 5,9 C 9,9 C 0,0 km/h (0 Bft)
_ Min-Zeit 07:55 22:45 - 10:10 - - 22:45 22:00 23:55
Minimum _ 8,8 C 68 % - 0,0 km/h (0 Bft) - - 5,6 C 6,8 C 0,0 km/h (0 Bft)
_ Max-Zeit 15:25 10:40 10:05 22:10 - - 15:25 14:35 00:40
Maximum _ 17,7 C 95 % 0,7 l/m 11,6 km/h
O-SO (2 Bft)
- - 12,8 C 21,9 C 29,5 km/h
SO (5 Bft)
Durchschnitt _ 11,5 C 85 % #15,8 l/m 2,9 km/h (1 Bft) O-SO - 9,0 C 12,0 C 3,8 km/h (1 Bft)